createdAt,value
2022-10-20T00:01:08.726Z,45.80
2022-10-20T00:03:35.735Z,47.25
2022-10-20T00:06:16.939Z,47.53
2022-10-20T00:08:44.563Z,48.34
2022-10-20T00:11:13.474Z,48.65
2022-10-20T00:13:41.174Z,47.68
2022-10-20T00:16:08.474Z,47.55
2022-10-20T00:18:35.675Z,47.80
2022-10-20T00:21:07.405Z,48.63
2022-10-20T00:23:34.403Z,47.07
2022-10-20T00:26:07.594Z,47.30
2022-10-20T00:28:35.298Z,48.80
2022-10-20T00:31:02.353Z,48.37
2022-10-20T00:33:29.314Z,49.17
2022-10-20T00:36:02.136Z,48.99
2022-10-20T00:38:29.226Z,49.75
2022-10-20T00:40:56.220Z,53.39
2022-10-20T00:43:23.432Z,55.47
2022-10-20T00:45:56.622Z,53.56
2022-10-20T00:48:27.023Z,53.36
2022-10-20T00:50:55.563Z,50.04
2022-10-20T00:53:24.213Z,49.22
2022-10-20T00:55:52.531Z,52.28
2022-10-20T00:58:19.915Z,55.44
2022-10-20T01:00:48.988Z,55.96
2022-10-20T01:03:26.619Z,55.71
2022-10-20T01:05:53.597Z,57.40
2022-10-20T01:08:20.484Z,54.66
2022-10-20T01:11:07.144Z,53.10
2022-10-20T01:13:51.987Z,52.36
2022-10-20T01:16:54.508Z,52.30
2022-10-20T01:19:43.140Z,53.98
2022-10-20T01:22:25.234Z,53.60
2022-10-20T01:25:04.192Z,53.86
2022-10-20T01:27:37.983Z,53.58
2022-10-20T01:30:07.544Z,53.86
2022-10-20T01:33:02.090Z,56.56
2022-10-20T01:35:42.036Z,61.30
2022-10-20T01:38:16.604Z,62.34
2022-10-20T01:40:50.296Z,61.23
2022-10-20T01:43:19.864Z,63.88
2022-10-20T01:45:49.890Z,60.38
2022-10-20T01:48:20.284Z,52.24
2022-10-20T01:50:47.908Z,50.03
2022-10-20T01:53:15.134Z,50.58
2022-10-20T01:55:42.065Z,51.08
2022-10-20T01:58:16.596Z,51.33
2022-10-20T02:00:45.366Z,55.00
2022-10-20T02:03:32.324Z,55.60
2022-10-20T02:06:08.853Z,54.85
2022-10-20T02:08:48.746Z,54.47
2022-10-20T02:11:30.957Z,53.14
2022-10-20T02:13:58.422Z,55.67
2022-10-20T02:16:34.770Z,53.19
2022-10-20T02:19:02.506Z,53.36
2022-10-20T02:21:29.403Z,56.74
2022-10-20T02:23:57.377Z,58.96
2022-10-20T02:26:25.697Z,58.14
2022-10-20T02:28:59.675Z,55.30
2022-10-20T02:31:26.808Z,55.01
2022-10-20T02:33:55.632Z,56.53
2022-10-20T02:36:26.332Z,52.93
2022-10-20T02:38:53.380Z,51.43
2022-10-20T02:41:20.267Z,55.33
2022-10-20T02:43:47.157Z,55.32
2022-10-20T02:48:45.879Z,52.05
2022-10-20T02:51:13.470Z,53.64
2022-10-20T02:53:40.398Z,50.90
2022-10-20T02:56:08.395Z,50.67
2022-10-20T02:58:35.410Z,53.45
2022-10-20T03:01:02.947Z,55.25
2022-10-20T03:03:29.890Z,54.54
2022-10-20T03:05:56.861Z,52.28
2022-10-20T03:08:23.805Z,52.50
2022-10-20T03:10:50.672Z,53.68
2022-10-20T03:13:17.559Z,52.72
2022-10-20T03:15:44.444Z,54.30
2022-10-20T03:18:11.335Z,51.90
2022-10-20T03:20:38.206Z,52.28
2022-10-20T03:23:04.907Z,55.57
2022-10-20T03:25:33.824Z,56.22
2022-10-20T03:28:00.707Z,56.08
2022-10-20T03:30:27.437Z,57.13
2022-10-20T03:32:54.754Z,58.87
2022-10-20T03:35:21.619Z,57.49
2022-10-20T03:37:48.314Z,57.91
2022-10-20T03:40:15.277Z,55.08
2022-10-20T03:42:42.191Z,56.82
2022-10-20T03:45:09.461Z,57.33
2022-10-20T03:47:36.348Z,56.79
2022-10-20T03:52:36.832Z,58.00
2022-10-20T03:55:04.284Z,55.30
2022-10-20T03:57:31.179Z,56.08
2022-10-20T03:59:58.037Z,54.54
2022-10-20T04:02:33.013Z,54.25
2022-10-20T04:05:00.458Z,54.08
2022-10-20T04:07:27.387Z,52.79
2022-10-20T04:09:54.342Z,51.18
2022-10-20T04:12:21.165Z,52.37
2022-10-20T04:14:48.996Z,49.76
2022-10-20T04:17:15.874Z,52.00
2022-10-20T04:19:42.757Z,51.65
2022-10-20T04:22:09.411Z,52.30
2022-10-20T04:24:36.367Z,53.61
2022-10-20T04:27:03.739Z,54.79
2022-10-20T04:29:31.255Z,55.55
2022-10-20T04:31:58.273Z,52.47
2022-10-20T04:34:39.220Z,52.73
2022-10-20T04:37:06.083Z,54.07
2022-10-20T04:39:32.794Z,52.53
2022-10-20T04:42:00.137Z,53.88
2022-10-20T04:44:27.034Z,51.13
2022-10-20T04:46:56.772Z,50.78
2022-10-20T04:49:23.780Z,51.43
2022-10-20T04:51:50.677Z,51.48
2022-10-20T04:54:18.628Z,52.01
2022-10-20T04:56:45.524Z,52.59
2022-10-20T04:59:13.688Z,53.08
2022-10-20T05:01:41.115Z,54.42
2022-10-20T05:04:08.032Z,55.57
2022-10-20T05:06:34.748Z,55.22
2022-10-20T05:09:04.008Z,54.85
2022-10-20T05:11:31.987Z,53.79
2022-10-20T05:13:58.849Z,53.84
2022-10-20T05:16:25.922Z,54.81
2022-10-20T05:18:53.917Z,56.48
2022-10-20T05:21:23.361Z,56.42
2022-10-20T05:23:56.572Z,58.63
2022-10-20T05:26:23.792Z,60.17
2022-10-20T05:28:51.676Z,61.50
2022-10-20T05:31:20.424Z,59.57
2022-10-20T05:33:51.606Z,54.11
2022-10-20T05:36:22.700Z,53.64
2022-10-20T05:38:52.239Z,55.79
2022-10-20T05:41:21.349Z,54.40
2022-10-20T05:43:50.187Z,54.63
2022-10-20T05:46:22.018Z,55.49
2022-10-20T05:48:48.908Z,56.28
2022-10-20T05:51:16.576Z,55.87
2022-10-20T05:53:44.134Z,54.55
2022-10-20T05:56:14.546Z,53.99
2022-10-20T05:58:43.996Z,54.73
2022-10-20T06:01:23.980Z,51.84
2022-10-20T06:03:54.138Z,50.05
2022-10-20T06:06:22.616Z,46.88
2022-10-20T06:08:51.044Z,45.38
2022-10-20T06:11:21.815Z,42.07
2022-10-20T06:13:51.911Z,41.55
2022-10-20T06:16:23.009Z,40.97
2022-10-20T06:18:50.452Z,40.65
2022-10-20T06:21:21.995Z,38.74
2022-10-20T06:23:49.575Z,37.13
2022-10-20T06:26:18.726Z,37.74
2022-10-20T06:28:47.261Z,37.95
2022-10-20T06:31:19.617Z,36.69
2022-10-20T06:33:47.158Z,36.39
2022-10-20T06:36:14.692Z,35.04
2022-10-20T06:38:42.265Z,34.29
2022-10-20T06:41:12.254Z,33.66
2022-10-20T06:43:39.197Z,32.35
2022-10-20T06:46:08.750Z,31.24
2022-10-20T06:48:36.175Z,30.69
2022-10-20T06:51:08.792Z,30.25
2022-10-20T06:53:36.482Z,31.21
2022-10-20T06:56:09.250Z,30.10
2022-10-20T06:58:37.592Z,28.85
2022-10-20T07:01:11.075Z,28.54
2022-10-20T07:03:39.063Z,28.34
2022-10-20T07:06:06.945Z,29.91
2022-10-20T07:08:35.293Z,29.91
2022-10-20T07:11:03.257Z,30.32
2022-10-20T07:13:30.702Z,28.97
2022-10-20T07:15:58.902Z,31.60
2022-10-20T07:18:27.149Z,33.13
2022-10-20T07:21:02.394Z,34.84
2022-10-20T07:23:31.059Z,36.28
2022-10-20T07:26:11.293Z,40.39
2022-10-20T07:28:39.864Z,40.71
2022-10-20T07:31:08.855Z,43.22
2022-10-20T07:33:35.799Z,42.90
2022-10-20T07:36:03.051Z,40.67
2022-10-20T07:38:29.880Z,42.43
2022-10-20T07:41:03.109Z,41.22
2022-10-20T07:43:30.389Z,41.21
2022-10-20T07:45:58.247Z,43.04
2022-10-20T07:48:25.125Z,43.26
2022-10-20T07:50:54.754Z,43.27
2022-10-20T07:53:21.607Z,43.80
2022-10-20T07:55:48.479Z,44.47
2022-10-20T07:58:18.555Z,42.64
2022-10-20T08:00:45.835Z,43.89
2022-10-20T08:03:12.702Z,42.69
2022-10-20T08:05:39.541Z,43.74
2022-10-20T08:08:06.468Z,42.76
2022-10-20T08:10:33.299Z,41.87
2022-10-20T08:13:05.369Z,40.60
2022-10-20T08:15:37.130Z,41.92
2022-10-20T08:18:06.352Z,42.63
2022-10-20T08:20:35.825Z,44.01
2022-10-20T08:23:07.478Z,44.84
2022-10-20T08:25:40.051Z,44.58
2022-10-20T08:28:12.650Z,45.38
2022-10-20T08:30:43.906Z,45.54
2022-10-20T08:33:10.923Z,44.62
2022-10-20T08:35:37.765Z,44.92
2022-10-20T08:38:06.963Z,43.52
2022-10-20T08:40:35.076Z,43.18
2022-10-20T08:43:01.949Z,42.65
2022-10-20T08:45:29.523Z,41.10
2022-10-20T08:47:57.901Z,39.74
2022-10-20T08:50:28.298Z,41.39
2022-10-20T08:52:58.174Z,40.08
2022-10-20T08:55:33.010Z,41.89
2022-10-20T08:58:10.754Z,38.57
2022-10-20T09:00:45.739Z,39.50
2022-10-20T09:03:24.662Z,39.31
2022-10-20T09:05:56.837Z,39.54
2022-10-20T09:08:26.969Z,41.15
2022-10-20T09:10:54.708Z,40.53
2022-10-20T09:13:27.065Z,41.74
2022-10-20T09:15:59.523Z,40.56
2022-10-20T09:18:26.581Z,40.20
2022-10-20T09:20:59.299Z,39.79
2022-10-20T09:23:47.138Z,39.17
2022-10-20T09:26:54.687Z,38.55
2022-10-20T09:29:35.871Z,40.49
2022-10-20T09:32:15.367Z,40.92
2022-10-20T09:34:49.648Z,41.14
2022-10-20T09:37:19.159Z,41.33
2022-10-20T09:39:58.759Z,41.18
2022-10-20T09:42:35.711Z,41.80
2022-10-20T09:45:17.046Z,42.15
2022-10-20T09:47:46.521Z,41.98
2022-10-20T09:50:29.477Z,43.01
2022-10-20T09:52:56.730Z,44.17
2022-10-20T09:55:42.378Z,42.64
2022-10-20T09:58:27.189Z,43.57
2022-10-20T10:01:12.961Z,43.62
2022-10-20T10:03:45.251Z,42.48
2022-10-20T10:06:34.794Z,43.11
2022-10-20T10:09:02.616Z,42.00
2022-10-20T10:11:34.782Z,41.80
2022-10-20T10:14:02.389Z,41.49
2022-10-20T10:16:40.781Z,41.79
2022-10-20T10:19:08.238Z,40.83
2022-10-20T10:21:49.189Z,40.56
2022-10-20T10:24:43.274Z,38.32
2022-10-20T10:27:27.678Z,40.09
2022-10-20T10:29:55.905Z,41.24
2022-10-20T10:32:28.490Z,39.34
2022-10-20T10:35:05.166Z,39.65
2022-10-20T10:37:34.845Z,39.39
2022-10-20T10:40:05.665Z,39.67
2022-10-20T10:42:53.955Z,37.36
2022-10-20T10:45:36.700Z,39.42
2022-10-20T10:48:19.074Z,39.68
2022-10-20T10:51:00.888Z,37.70
2022-10-20T10:54:10.836Z,36.34
2022-10-20T10:56:57.321Z,35.99
2022-10-20T10:59:30.268Z,36.86
2022-10-20T11:02:18.545Z,36.28
2022-10-20T11:05:19.248Z,34.63
2022-10-20T11:07:46.037Z,34.67
2022-10-20T11:10:23.421Z,35.53
2022-10-20T11:13:15.171Z,37.04
2022-10-20T11:16:06.753Z,35.24
2022-10-20T11:18:45.395Z,34.94
2022-10-20T11:21:14.932Z,36.79
2022-10-20T11:23:53.953Z,36.40
2022-10-20T11:26:29.301Z,34.35
2022-10-20T11:28:57.250Z,33.10
2022-10-20T11:31:37.363Z,35.15
2022-10-20T11:34:15.051Z,35.12
2022-10-20T11:36:47.233Z,32.82
2022-10-20T11:39:45.556Z,34.00
2022-10-20T11:42:30.837Z,34.31
2022-10-20T11:45:00.551Z,33.51
2022-10-20T11:47:35.020Z,34.30
2022-10-20T11:50:05.868Z,33.85
2022-10-20T11:52:59.152Z,35.40
2022-10-20T11:55:38.243Z,34.66
2022-10-20T11:58:16.000Z,36.55
2022-10-20T12:00:59.546Z,36.57
2022-10-20T12:04:10.746Z,35.21
2022-10-20T12:07:07.246Z,37.03
2022-10-20T12:10:08.785Z,35.76
2022-10-20T12:12:53.739Z,37.51
2022-10-20T12:15:28.993Z,37.59
2022-10-20T12:18:19.116Z,37.44
2022-10-20T12:20:51.991Z,36.00
2022-10-20T12:23:51.963Z,36.86
2022-10-20T12:26:29.746Z,35.95
2022-10-20T12:28:57.538Z,37.15
2022-10-20T12:31:25.876Z,37.92
2022-10-20T12:33:55.392Z,37.09
2022-10-20T12:36:29.849Z,37.34
2022-10-20T12:39:29.257Z,37.58
2022-10-20T12:42:01.498Z,35.82
2022-10-20T12:44:32.707Z,36.22
2022-10-20T12:47:09.070Z,36.38
2022-10-20T12:49:39.140Z,36.97
2022-10-20T12:52:07.883Z,36.38
2022-10-20T12:54:41.167Z,36.36
2022-10-20T12:57:36.924Z,36.33
2022-10-20T13:00:28.541Z,37.38
2022-10-20T13:02:58.722Z,40.75
2022-10-20T13:05:28.332Z,35.70
2022-10-20T13:07:59.988Z,36.15
2022-10-20T13:10:36.748Z,37.98
2022-10-20T13:13:03.552Z,36.20
2022-10-20T13:15:34.991Z,35.64
2022-10-20T13:18:13.971Z,34.76
2022-10-20T13:20:44.590Z,35.29
2022-10-20T13:23:39.566Z,35.29
2022-10-20T13:26:17.969Z,38.54
2022-10-20T13:28:48.025Z,38.06
2022-10-20T13:31:17.288Z,36.53
2022-10-20T13:34:12.044Z,36.68
2022-10-20T13:37:03.855Z,36.70
2022-10-20T13:40:16.379Z,37.38
2022-10-20T13:43:10.477Z,37.41
2022-10-20T13:45:53.884Z,38.61
2022-10-20T13:48:42.211Z,37.20
2022-10-20T13:51:27.194Z,36.58
2022-10-20T13:53:56.818Z,36.96
2022-10-20T13:56:26.553Z,36.28
2022-10-20T13:59:05.677Z,37.67
2022-10-20T14:01:35.705Z,37.82
2022-10-20T14:04:02.616Z,36.66
2022-10-20T14:06:37.367Z,36.74
2022-10-20T14:09:17.817Z,37.40
2022-10-20T14:11:47.347Z,36.07
2022-10-20T14:14:16.902Z,36.36
2022-10-20T14:16:52.207Z,37.17
2022-10-20T14:19:27.839Z,36.42
2022-10-20T14:22:06.972Z,36.02
2022-10-20T14:24:37.133Z,37.71
2022-10-20T14:27:05.563Z,36.55
2022-10-20T14:29:35.417Z,38.90
2022-10-20T14:32:02.329Z,38.28
2022-10-20T14:34:31.833Z,38.60
2022-10-20T14:36:58.837Z,37.79
2022-10-20T14:39:36.325Z,38.24
2022-10-20T14:42:05.959Z,37.98
2022-10-20T14:44:32.966Z,38.04
2022-10-20T14:47:05.463Z,36.87
2022-10-20T14:49:35.488Z,36.18
2022-10-20T14:52:04.753Z,37.09
2022-10-20T14:57:10.248Z,36.90
2022-10-20T14:59:59.310Z,37.15
2022-10-20T15:02:28.859Z,35.24
2022-10-20T15:04:55.722Z,35.84
2022-10-20T15:07:33.510Z,35.82
2022-10-20T15:10:08.665Z,36.46
2022-10-20T15:12:40.665Z,36.36
2022-10-20T15:15:21.520Z,35.98
2022-10-20T15:17:51.643Z,36.17
2022-10-20T15:20:33.810Z,37.39
2022-10-20T15:23:13.881Z,36.99
2022-10-20T15:25:59.414Z,35.56
2022-10-20T15:28:32.545Z,36.01
2022-10-20T15:31:00.262Z,35.62
2022-10-20T15:33:27.314Z,36.63
2022-10-20T15:35:55.230Z,36.36
2022-10-20T15:38:22.147Z,36.80
2022-10-20T15:40:49.125Z,37.05
2022-10-20T15:43:17.631Z,37.46
2022-10-20T15:45:47.972Z,36.66
2022-10-20T15:48:15.008Z,36.29
2022-10-20T15:50:42.056Z,37.23
2022-10-20T15:53:11.281Z,36.74
2022-10-20T15:55:41.845Z,38.01
2022-10-20T15:58:08.986Z,38.76
2022-10-20T16:00:36.438Z,39.97
2022-10-20T16:03:03.864Z,42.54
2022-10-20T16:05:30.747Z,41.28
2022-10-20T16:07:57.614Z,39.86
2022-10-20T16:10:26.362Z,39.26
2022-10-20T16:12:53.204Z,40.60
2022-10-20T16:15:20.192Z,39.93
2022-10-20T16:17:47.261Z,39.97
2022-10-20T16:20:15.039Z,39.48
2022-10-20T16:22:41.867Z,42.07
2022-10-20T16:25:09.234Z,41.28
2022-10-20T16:27:36.434Z,42.95
2022-10-20T16:30:04.903Z,43.01
2022-10-20T16:32:34.594Z,43.17
2022-10-20T16:35:04.281Z,42.80
2022-10-20T16:37:32.205Z,43.07
2022-10-20T16:39:59.805Z,43.22
2022-10-20T16:42:27.679Z,44.27
2022-10-20T16:44:54.560Z,44.30
2022-10-20T16:47:21.515Z,44.55
2022-10-20T16:49:48.423Z,45.06
2022-10-20T16:52:15.288Z,43.70
2022-10-20T16:57:14.080Z,45.83
2022-10-20T16:59:42.641Z,45.39
2022-10-20T17:02:11.555Z,45.60
2022-10-20T17:04:38.580Z,44.28
2022-10-20T17:07:05.877Z,44.89
2022-10-20T17:09:32.714Z,43.56
2022-10-20T17:11:59.578Z,44.24
2022-10-20T17:14:26.530Z,43.89
2022-10-20T17:16:53.435Z,43.83
2022-10-20T17:19:20.265Z,43.88
2022-10-20T17:21:47.080Z,45.47
2022-10-20T17:24:14.028Z,45.06
2022-10-20T17:26:41.769Z,44.31
2022-10-20T17:29:09.656Z,44.33
2022-10-20T17:31:38.393Z,45.01
2022-10-20T17:34:05.531Z,43.83
2022-10-20T17:36:32.888Z,44.20
2022-10-20T17:39:06.247Z,44.80
2022-10-20T17:41:33.541Z,44.24
2022-10-20T17:44:04.813Z,45.95
2022-10-20T17:46:32.123Z,46.16
2022-10-20T17:49:01.694Z,44.76
2022-10-20T17:51:31.962Z,45.02
2022-10-20T17:54:01.546Z,44.73
2022-10-20T17:56:36.369Z,46.08
2022-10-20T17:59:05.560Z,46.15
2022-10-20T18:01:38.066Z,44.80
2022-10-20T18:04:08.165Z,44.33
2022-10-20T18:06:35.951Z,44.61
2022-10-20T18:09:05.999Z,44.46
2022-10-20T18:11:34.803Z,45.23
2022-10-20T18:14:02.000Z,45.15
2022-10-20T18:16:30.829Z,45.89
2022-10-20T18:21:31.511Z,45.83
2022-10-20T18:24:02.450Z,46.09
2022-10-20T18:26:30.901Z,46.16
2022-10-20T18:28:58.272Z,47.47
2022-10-20T18:31:27.581Z,45.93
2022-10-20T18:34:06.673Z,46.17
2022-10-20T18:36:36.951Z,46.94
2022-10-20T18:39:07.637Z,46.98
2022-10-20T18:41:38.274Z,46.41
2022-10-20T18:44:08.325Z,47.51
2022-10-20T18:46:35.270Z,48.26
2022-10-20T18:49:04.331Z,49.07
2022-10-20T18:51:31.827Z,48.71
2022-10-20T18:54:00.012Z,46.31
2022-10-20T18:56:29.435Z,48.57
2022-10-20T18:59:01.583Z,48.47
2022-10-20T19:01:30.973Z,47.47
2022-10-20T19:03:59.000Z,47.45
2022-10-20T19:06:37.268Z,44.59
2022-10-20T19:09:06.771Z,47.39
2022-10-20T19:11:37.024Z,47.88
2022-10-20T19:14:04.053Z,47.59
2022-10-20T19:16:32.815Z,48.29
2022-10-20T19:19:01.287Z,47.80
2022-10-20T19:21:29.542Z,48.55
2022-10-20T19:24:06.823Z,48.67
2022-10-20T19:26:38.362Z,48.10
2022-10-20T19:29:08.311Z,47.86
2022-10-20T19:31:38.296Z,47.26
2022-10-20T19:34:11.336Z,48.88
2022-10-20T19:36:40.342Z,46.39
2022-10-20T19:39:08.972Z,46.62
2022-10-20T19:41:35.879Z,46.82
2022-10-20T19:44:03.387Z,46.49
2022-10-20T19:46:30.255Z,47.61
2022-10-20T19:48:57.746Z,48.29
2022-10-20T19:51:24.821Z,48.57
2022-10-20T19:53:51.918Z,48.08
2022-10-20T19:56:18.799Z,49.36
2022-10-20T19:58:46.807Z,48.15
2022-10-20T20:01:13.943Z,49.20
2022-10-20T20:03:41.018Z,49.00
2022-10-20T20:06:17.400Z,47.98
2022-10-20T20:08:45.846Z,48.51
2022-10-20T20:11:21.426Z,47.71
2022-10-20T20:13:48.274Z,47.52
2022-10-20T20:16:14.938Z,48.95
2022-10-20T20:18:41.802Z,49.52
2022-10-20T20:21:08.655Z,51.73
2022-10-20T20:23:47.557Z,53.05
2022-10-20T20:26:21.488Z,51.14
2022-10-20T20:28:48.635Z,51.50
2022-10-20T20:31:15.509Z,50.31
2022-10-20T20:33:42.429Z,51.73
2022-10-20T20:36:09.853Z,49.33
2022-10-20T20:38:38.432Z,50.72
2022-10-20T20:41:07.205Z,50.04
2022-10-20T20:43:37.468Z,50.58
2022-10-20T20:46:08.841Z,57.55
2022-10-20T20:48:36.408Z,54.10
2022-10-20T20:51:03.837Z,54.02
2022-10-20T20:53:31.301Z,53.17
2022-10-20T20:56:00.079Z,52.95
2022-10-20T20:58:28.432Z,52.11
2022-10-20T21:01:22.642Z,52.16
2022-10-20T21:03:56.449Z,51.69
2022-10-20T21:06:33.300Z,51.53
2022-10-20T21:09:06.960Z,52.13
2022-10-20T21:11:33.879Z,50.75
2022-10-20T21:14:00.921Z,50.85
2022-10-20T21:16:35.117Z,49.96
2022-10-20T21:19:04.607Z,49.65
2022-10-20T21:21:39.121Z,49.22
2022-10-20T21:24:06.636Z,54.40
2022-10-20T21:26:33.587Z,54.38
2022-10-20T21:29:00.583Z,54.25
2022-10-20T21:31:28.766Z,51.85
2022-10-20T21:33:57.590Z,51.99
2022-10-20T21:36:25.389Z,51.51
2022-10-20T21:38:53.071Z,51.69
2022-10-20T21:41:37.613Z,49.52
2022-10-20T21:44:06.722Z,48.93
2022-10-20T21:46:36.217Z,49.61
2022-10-20T21:49:05.495Z,51.33
2022-10-20T21:51:39.841Z,51.07
2022-10-20T21:54:08.876Z,49.61
2022-10-20T21:56:37.471Z,50.54
2022-10-20T21:59:05.406Z,50.83
2022-10-20T22:01:32.495Z,52.25
2022-10-20T22:03:59.459Z,54.27
2022-10-20T22:06:27.771Z,53.56
2022-10-20T22:08:57.550Z,53.75
2022-10-20T22:11:30.771Z,56.02
2022-10-20T22:13:58.022Z,58.83
2022-10-20T22:16:27.688Z,57.71
2022-10-20T22:19:13.961Z,59.42
2022-10-20T22:21:42.624Z,58.55
2022-10-20T22:24:09.787Z,56.62
2022-10-20T22:26:37.045Z,55.52
2022-10-20T22:29:05.210Z,56.15
2022-10-20T22:31:32.133Z,56.35
2022-10-20T22:33:59.845Z,56.79
2022-10-20T22:36:27.495Z,54.79
2022-10-20T22:38:54.402Z,52.11
2022-10-20T22:41:21.542Z,50.78
2022-10-20T22:43:48.624Z,50.26
2022-10-20T22:46:18.598Z,48.94
2022-10-20T22:48:46.471Z,49.89
2022-10-20T22:51:13.437Z,50.50
2022-10-20T22:53:40.756Z,50.82
2022-10-20T22:56:19.408Z,51.68
2022-10-20T22:58:47.039Z,52.47
2022-10-20T23:01:16.778Z,52.23
2022-10-20T23:03:44.806Z,52.45
2022-10-20T23:06:29.648Z,51.25
2022-10-20T23:08:56.621Z,52.10
2022-10-20T23:11:23.967Z,52.01
2022-10-20T23:13:51.339Z,55.58
2022-10-20T23:16:19.577Z,53.84
2022-10-20T23:18:46.745Z,54.00
2022-10-20T23:21:14.414Z,53.65
2022-10-20T23:23:41.582Z,54.16
2022-10-20T23:26:09.254Z,52.95
2022-10-20T23:28:36.936Z,54.03
2022-10-20T23:31:18.894Z,54.17
2022-10-20T23:33:47.045Z,55.27
2022-10-20T23:36:14.949Z,53.04
2022-10-20T23:38:42.803Z,53.33
2022-10-20T23:41:10.228Z,53.14
2022-10-20T23:46:09.631Z,57.33
2022-10-20T23:48:36.629Z,54.43
2022-10-20T23:51:03.697Z,53.49
2022-10-20T23:53:30.977Z,55.21
2022-10-20T23:55:57.803Z,53.71
2022-10-20T23:58:24.522Z,53.77
